sensor_id;sensor_type;location;lat;lon;timestamp;temperature;humidity
68026;SHT31;54819;48.030;14.710;2023-10-09T00:01:50;12.12;80.55
68026;SHT31;54819;48.030;14.710;2023-10-09T00:04:18;12.14;80.47
68026;SHT31;54819;48.030;14.710;2023-10-09T00:06:47;12.16;80.31
68026;SHT31;54819;48.030;14.710;2023-10-09T00:09:14;12.17;80.09
68026;SHT31;54819;48.030;14.710;2023-10-09T00:11:50;12.16;79.76
68026;SHT31;54819;48.030;14.710;2023-10-09T00:14:26;12.18;79.50
68026;SHT31;54819;48.030;14.710;2023-10-09T00:17:05;12.19;79.31
68026;SHT31;54819;48.030;14.710;2023-10-09T00:19:47;12.17;79.17
68026;SHT31;54819;48.030;14.710;2023-10-09T00:22:16;12.17;79.05
68026;SHT31;54819;48.030;14.710;2023-10-09T00:24:53;12.13;78.97
68026;SHT31;54819;48.030;14.710;2023-10-09T00:27:39;12.09;78.99
68026;SHT31;54819;48.030;14.710;2023-10-09T00:30:14;12.05;78.93
68026;SHT31;54819;48.030;14.710;2023-10-09T00:32:48;12.02;78.99
68026;SHT31;54819;48.030;14.710;2023-10-09T00:35:37;11.99;78.90
68026;SHT31;54819;48.030;14.710;2023-10-09T00:38:21;11.96;78.82
68026;SHT31;54819;48.030;14.710;2023-10-09T00:40:48;11.93;78.92
68026;SHT31;54819;48.030;14.710;2023-10-09T00:43:40;11.90;78.90
68026;SHT31;54819;48.030;14.710;2023-10-09T00:46:10;11.87;79.02
68026;SHT31;54819;48.030;14.710;2023-10-09T00:48:57;11.86;79.01
68026;SHT31;54819;48.030;14.710;2023-10-09T00:51:28;11.82;78.94
68026;SHT31;54819;48.030;14.710;2023-10-09T00:54:03;11.78;78.93
68026;SHT31;54819;48.030;14.710;2023-10-09T00:56:41;11.75;78.97
68026;SHT31;54819;48.030;14.710;2023-10-09T00:59:18;11.72;79.00
68026;SHT31;54819;48.030;14.710;2023-10-09T01:01:48;11.69;79.13
68026;SHT31;54819;48.030;14.710;2023-10-09T01:04:31;11.67;79.26
68026;SHT31;54819;48.030;14.710;2023-10-09T01:06:59;11.66;79.38
68026;SHT31;54819;48.030;14.710;2023-10-09T01:09:39;11.66;79.36
68026;SHT31;54819;48.030;14.710;2023-10-09T01:12:09;11.69;79.31
68026;SHT31;54819;48.030;14.710;2023-10-09T01:14:46;11.68;79.32
68026;SHT31;54819;48.030;14.710;2023-10-09T01:17:21;11.68;79.20
68026;SHT31;54819;48.030;14.710;2023-10-09T01:20:22;11.68;78.99
68026;SHT31;54819;48.030;14.710;2023-10-09T01:22:59;11.65;78.74
68026;SHT31;54819;48.030;14.710;2023-10-09T01:25:27;11.61;78.61
68026;SHT31;54819;48.030;14.710;2023-10-09T01:28:08;11.58;78.48
68026;SHT31;54819;48.030;14.710;2023-10-09T01:30:34;11.54;78.42
68026;SHT31;54819;48.030;14.710;2023-10-09T01:33:08;11.51;78.40
68026;SHT31;54819;48.030;14.710;2023-10-09T01:35:48;11.49;78.40
68026;SHT31;54819;48.030;14.710;2023-10-09T01:38:17;11.46;78.34
68026;SHT31;54819;48.030;14.710;2023-10-09T01:40:44;11.48;78.46
68026;SHT31;54819;48.030;14.710;2023-10-09T01:43:11;11.52;78.43
68026;SHT31;54819;48.030;14.710;2023-10-09T01:45:38;11.55;78.40
68026;SHT31;54819;48.030;14.710;2023-10-09T01:48:14;11.59;78.40
68026;SHT31;54819;48.030;14.710;2023-10-09T01:50:41;11.64;78.47
68026;SHT31;54819;48.030;14.710;2023-10-09T01:53:08;11.69;78.47
68026;SHT31;54819;48.030;14.710;2023-10-09T01:55:35;11.74;78.41
68026;SHT31;54819;48.030;14.710;2023-10-09T01:58:06;11.79;78.38
68026;SHT31;54819;48.030;14.710;2023-10-09T02:00:49;11.84;78.33
68026;SHT31;54819;48.030;14.710;2023-10-09T02:03:21;11.89;78.32
68026;SHT31;54819;48.030;14.710;2023-10-09T02:05:53;11.94;78.31
68026;SHT31;54819;48.030;14.710;2023-10-09T02:08:26;11.95;77.99
68026;SHT31;54819;48.030;14.710;2023-10-09T02:10:56;11.92;77.87
68026;SHT31;54819;48.030;14.710;2023-10-09T02:13:23;11.86;77.82
68026;SHT31;54819;48.030;14.710;2023-10-09T02:15:56;11.80;77.90
68026;SHT31;54819;48.030;14.710;2023-10-09T02:18:40;11.74;77.87
68026;SHT31;54819;48.030;14.710;2023-10-09T02:21:19;11.64;77.92
68026;SHT31;54819;48.030;14.710;2023-10-09T02:24:15;11.57;78.09
68026;SHT31;54819;48.030;14.710;2023-10-09T02:27:02;11.53;78.13
68026;SHT31;54819;48.030;14.710;2023-10-09T02:29:35;11.49;78.08
68026;SHT31;54819;48.030;14.710;2023-10-09T02:32:04;11.43;78.26
68026;SHT31;54819;48.030;14.710;2023-10-09T02:34:40;11.41;78.40
68026;SHT31;54819;48.030;14.710;2023-10-09T02:37:08;11.40;78.37
68026;SHT31;54819;48.030;14.710;2023-10-09T02:39:39;11.32;78.24
68026;SHT31;54819;48.030;14.710;2023-10-09T02:42:14;11.26;78.24
68026;SHT31;54819;48.030;14.710;2023-10-09T02:44:41;11.18;78.31
68026;SHT31;54819;48.030;14.710;2023-10-09T02:47:18;11.12;78.47
68026;SHT31;54819;48.030;14.710;2023-10-09T02:49:56;11.07;78.40
68026;SHT31;54819;48.030;14.710;2023-10-09T02:52:34;11.01;78.45
68026;SHT31;54819;48.030;14.710;2023-10-09T02:55:07;10.92;78.67
68026;SHT31;54819;48.030;14.710;2023-10-09T02:57:49;10.88;78.76
68026;SHT31;54819;48.030;14.710;2023-10-09T03:00:22;10.87;78.90
68026;SHT31;54819;48.030;14.710;2023-10-09T03:02:56;10.89;79.00
68026;SHT31;54819;48.030;14.710;2023-10-09T03:05:25;10.92;79.05
68026;SHT31;54819;48.030;14.710;2023-10-09T03:07:55;10.93;79.03
68026;SHT31;54819;48.030;14.710;2023-10-09T03:10:22;10.95;79.09
68026;SHT31;54819;48.030;14.710;2023-10-09T03:12:51;10.96;79.12
68026;SHT31;54819;48.030;14.710;2023-10-09T03:15:19;10.99;79.21
68026;SHT31;54819;48.030;14.710;2023-10-09T03:17:47;11.02;79.20
68026;SHT31;54819;48.030;14.710;2023-10-09T03:20:15;11.06;79.20
68026;SHT31;54819;48.030;14.710;2023-10-09T03:22:45;11.07;79.20
68026;SHT31;54819;48.030;14.710;2023-10-09T03:25:14;11.10;79.20
68026;SHT31;54819;48.030;14.710;2023-10-09T03:27:43;11.12;79.21
68026;SHT31;54819;48.030;14.710;2023-10-09T03:30:13;11.13;79.20
68026;SHT31;54819;48.030;14.710;2023-10-09T03:32:50;11.14;79.22
68026;SHT31;54819;48.030;14.710;2023-10-09T03:35:19;11.12;79.27
68026;SHT31;54819;48.030;14.710;2023-10-09T03:38:00;11.09;79.32
68026;SHT31;54819;48.030;14.710;2023-10-09T03:40:36;11.04;79.45
68026;SHT31;54819;48.030;14.710;2023-10-09T03:43:05;11.00;79.55
68026;SHT31;54819;48.030;14.710;2023-10-09T03:45:32;10.95;79.75
68026;SHT31;54819;48.030;14.710;2023-10-09T03:48:02;10.94;79.84
68026;SHT31;54819;48.030;14.710;2023-10-09T03:50:37;10.94;79.90
68026;SHT31;54819;48.030;14.710;2023-10-09T03:53:05;10.93;80.00
68026;SHT31;54819;48.030;14.710;2023-10-09T03:55:37;10.93;80.05
68026;SHT31;54819;48.030;14.710;2023-10-09T03:58:06;10.92;80.10
68026;SHT31;54819;48.030;14.710;2023-10-09T04:00:33;10.90;80.10
68026;SHT31;54819;48.030;14.710;2023-10-09T04:03:12;10.88;80.12
68026;SHT31;54819;48.030;14.710;2023-10-09T04:05:42;10.84;80.21
68026;SHT31;54819;48.030;14.710;2023-10-09T04:08:12;10.82;80.27
68026;SHT31;54819;48.030;14.710;2023-10-09T04:10:40;10.77;80.34
68026;SHT31;54819;48.030;14.710;2023-10-09T04:13:11;10.74;80.42
68026;SHT31;54819;48.030;14.710;2023-10-09T04:15:43;10.71;80.53
68026;SHT31;54819;48.030;14.710;2023-10-09T04:18:10;10.69;80.61
68026;SHT31;54819;48.030;14.710;2023-10-09T04:20:41;10.66;80.75
68026;SHT31;54819;48.030;14.710;2023-10-09T04:23:37;10.63;80.86
68026;SHT31;54819;48.030;14.710;2023-10-09T04:26:23;10.61;80.97
68026;SHT31;54819;48.030;14.710;2023-10-09T04:28:55;10.60;81.04
68026;SHT31;54819;48.030;14.710;2023-10-09T04:31:21;10.59;81.15
68026;SHT31;54819;48.030;14.710;2023-10-09T04:33:58;10.58;81.30
68026;SHT31;54819;48.030;14.710;2023-10-09T04:36:49;10.57;81.33
68026;SHT31;54819;48.030;14.710;2023-10-09T04:39:17;10.57;81.41
68026;SHT31;54819;48.030;14.710;2023-10-09T04:41:56;10.57;81.54
68026;SHT31;54819;48.030;14.710;2023-10-09T04:44:42;10.57;81.59
68026;SHT31;54819;48.030;14.710;2023-10-09T04:47:45;10.60;81.59
68026;SHT31;54819;48.030;14.710;2023-10-09T04:50:38;10.63;81.54
68026;SHT31;54819;48.030;14.710;2023-10-09T04:53:33;10.65;81.60
68026;SHT31;54819;48.030;14.710;2023-10-09T04:56:10;10.69;81.62
68026;SHT31;54819;48.030;14.710;2023-10-09T04:58:42;10.72;81.63
68026;SHT31;54819;48.030;14.710;2023-10-09T05:01:11;10.74;81.68
68026;SHT31;54819;48.030;14.710;2023-10-09T05:03:43;10.77;81.67
68026;SHT31;54819;48.030;14.710;2023-10-09T05:06:10;10.80;81.69
68026;SHT31;54819;48.030;14.710;2023-10-09T05:08:48;10.85;81.62
68026;SHT31;54819;48.030;14.710;2023-10-09T05:11:16;10.89;81.49
68026;SHT31;54819;48.030;14.710;2023-10-09T05:14:01;10.94;81.41
68026;SHT31;54819;48.030;14.710;2023-10-09T05:16:40;10.98;81.35
68026;SHT31;54819;48.030;14.710;2023-10-09T05:19:22;11.02;81.26
68026;SHT31;54819;48.030;14.710;2023-10-09T05:22:16;11.05;81.13
68026;SHT31;54819;48.030;14.710;2023-10-09T05:25:03;11.07;81.06
68026;SHT31;54819;48.030;14.710;2023-10-09T05:27:41;11.13;81.08
68026;SHT31;54819;48.030;14.710;2023-10-09T05:30:17;11.16;81.00
68026;SHT31;54819;48.030;14.710;2023-10-09T05:32:54;11.18;80.91
68026;SHT31;54819;48.030;14.710;2023-10-09T05:35:25;11.20;80.83
68026;SHT31;54819;48.030;14.710;2023-10-09T05:38:07;11.21;80.82
68026;SHT31;54819;48.030;14.710;2023-10-09T05:40:50;11.23;80.84
68026;SHT31;54819;48.030;14.710;2023-10-09T05:43:31;11.25;80.72
68026;SHT31;54819;48.030;14.710;2023-10-09T05:46:16;11.27;80.70
68026;SHT31;54819;48.030;14.710;2023-10-09T05:48:43;11.30;80.78
68026;SHT31;54819;48.030;14.710;2023-10-09T05:51:10;11.32;80.73
68026;SHT31;54819;48.030;14.710;2023-10-09T05:53:38;11.35;80.70
68026;SHT31;54819;48.030;14.710;2023-10-09T05:56:12;11.40;80.60
68026;SHT31;54819;48.030;14.710;2023-10-09T05:58:58;11.45;80.51
68026;SHT31;54819;48.030;14.710;2023-10-09T06:01:30;11.51;80.55
68026;SHT31;54819;48.030;14.710;2023-10-09T06:04:16;11.60;80.42
68026;SHT31;54819;48.030;14.710;2023-10-09T06:06:45;11.67;80.32
68026;SHT31;54819;48.030;14.710;2023-10-09T06:09:23;11.73;80.11
68026;SHT31;54819;48.030;14.710;2023-10-09T06:11:49;11.79;79.86
68026;SHT31;54819;48.030;14.710;2023-10-09T06:14:22;11.81;79.71
68026;SHT31;54819;48.030;14.710;2023-10-09T06:16:57;11.87;79.58
68026;SHT31;54819;48.030;14.710;2023-10-09T06:19:42;11.90;79.39
68026;SHT31;54819;48.030;14.710;2023-10-09T06:22:11;11.86;79.36
68026;SHT31;54819;48.030;14.710;2023-10-09T06:24:38;11.90;79.27
68026;SHT31;54819;48.030;14.710;2023-10-09T06:27:09;11.93;79.15
68026;SHT31;54819;48.030;14.710;2023-10-09T06:29:40;11.94;79.00
68026;SHT31;54819;48.030;14.710;2023-10-09T06:32:11;11.95;78.96
68026;SHT31;54819;48.030;14.710;2023-10-09T06:34:48;12.03;78.81
68026;SHT31;54819;48.030;14.710;2023-10-09T06:37:23;12.13;78.73
68026;SHT31;54819;48.030;14.710;2023-10-09T06:42:23;12.29;78.40
68026;SHT31;54819;48.030;14.710;2023-10-09T06:45:04;12.36;78.31
68026;SHT31;54819;48.030;14.710;2023-10-09T06:47:46;12.56;78.16
68026;SHT31;54819;48.030;14.710;2023-10-09T06:50:22;12.77;77.96
68026;SHT31;54819;48.030;14.710;2023-10-09T06:52:52;12.91;77.70
68026;SHT31;54819;48.030;14.710;2023-10-09T06:55:38;13.02;77.33
68026;SHT31;54819;48.030;14.710;2023-10-09T06:58:31;13.11;77.08
68026;SHT31;54819;48.030;14.710;2023-10-09T07:01:08;13.16;76.76
68026;SHT31;54819;48.030;14.710;2023-10-09T07:03:55;13.25;76.67
68026;SHT31;54819;48.030;14.710;2023-10-09T07:06:42;13.34;76.48
68026;SHT31;54819;48.030;14.710;2023-10-09T07:09:09;13.41;76.08
68026;SHT31;54819;48.030;14.710;2023-10-09T07:11:36;13.43;76.00
68026;SHT31;54819;48.030;14.710;2023-10-09T07:14:06;13.47;75.79
68026;SHT31;54819;48.030;14.710;2023-10-09T07:16:33;13.50;75.67
68026;SHT31;54819;48.030;14.710;2023-10-09T07:19:24;13.51;75.47
68026;SHT31;54819;48.030;14.710;2023-10-09T07:22:02;13.48;75.19
68026;SHT31;54819;48.030;14.710;2023-10-09T07:24:42;13.42;75.10
68026;SHT31;54819;48.030;14.710;2023-10-09T07:27:19;13.50;75.28
68026;SHT31;54819;48.030;14.710;2023-10-09T07:30:06;13.62;75.20
68026;SHT31;54819;48.030;14.710;2023-10-09T07:32:55;13.76;75.10
68026;SHT31;54819;48.030;14.710;2023-10-09T07:38:12;13.95;74.61
68026;SHT31;54819;48.030;14.710;2023-10-09T07:40:46;14.02;74.20
68026;SHT31;54819;48.030;14.710;2023-10-09T07:43:42;14.10;73.79
68026;SHT31;54819;48.030;14.710;2023-10-09T07:46:10;14.19;73.45
68026;SHT31;54819;48.030;14.710;2023-10-09T07:48:57;14.30;73.07
68026;SHT31;54819;48.030;14.710;2023-10-09T07:51:39;14.44;72.92
68026;SHT31;54819;48.030;14.710;2023-10-09T07:54:11;14.54;72.77
68026;SHT31;54819;48.030;14.710;2023-10-09T07:56:42;14.60;72.73
68026;SHT31;54819;48.030;14.710;2023-10-09T07:59:13;14.63;72.76
68026;SHT31;54819;48.030;14.710;2023-10-09T08:01:48;14.66;72.82
68026;SHT31;54819;48.030;14.710;2023-10-09T08:04:19;14.70;72.70
68026;SHT31;54819;48.030;14.710;2023-10-09T08:07:04;14.71;72.63
68026;SHT31;54819;48.030;14.710;2023-10-09T08:09:55;14.75;72.69
68026;SHT31;54819;48.030;14.710;2023-10-09T08:12:40;14.74;72.16
68026;SHT31;54819;48.030;14.710;2023-10-09T08:15:11;14.69;72.17
68026;SHT31;54819;48.030;14.710;2023-10-09T08:18:04;14.70;72.37
68026;SHT31;54819;48.030;14.710;2023-10-09T08:20:36;14.77;72.40
68026;SHT31;54819;48.030;14.710;2023-10-09T08:23:23;14.82;72.47
68026;SHT31;54819;48.030;14.710;2023-10-09T08:26:03;14.90;72.68
68026;SHT31;54819;48.030;14.710;2023-10-09T08:28:40;14.98;72.60
68026;SHT31;54819;48.030;14.710;2023-10-09T08:31:10;15.06;72.46
68026;SHT31;54819;48.030;14.710;2023-10-09T08:34:00;15.13;72.42
68026;SHT31;54819;48.030;14.710;2023-10-09T08:36:30;15.20;72.46
68026;SHT31;54819;48.030;14.710;2023-10-09T08:39:04;15.25;72.51
68026;SHT31;54819;48.030;14.710;2023-10-09T08:41:49;15.35;72.66
68026;SHT31;54819;48.030;14.710;2023-10-09T08:44:16;15.47;72.62
68026;SHT31;54819;48.030;14.710;2023-10-09T08:46:49;15.53;72.45
68026;SHT31;54819;48.030;14.710;2023-10-09T08:49:17;15.59;72.33
68026;SHT31;54819;48.030;14.710;2023-10-09T08:51:44;15.52;71.76
68026;SHT31;54819;48.030;14.710;2023-10-09T08:54:12;15.53;72.28
68026;SHT31;54819;48.030;14.710;2023-10-09T08:56:41;15.60;72.12
68026;SHT31;54819;48.030;14.710;2023-10-09T08:59:18;15.61;72.20
68026;SHT31;54819;48.030;14.710;2023-10-09T09:01:46;15.66;72.43
68026;SHT31;54819;48.030;14.710;2023-10-09T09:04:33;15.77;72.23
68026;SHT31;54819;48.030;14.710;2023-10-09T09:07:03;15.88;72.12
68026;SHT31;54819;48.030;14.710;2023-10-09T09:09:31;16.00;71.95
68026;SHT31;54819;48.030;14.710;2023-10-09T09:12:00;16.07;71.83
68026;SHT31;54819;48.030;14.710;2023-10-09T09:14:37;16.17;71.81
68026;SHT31;54819;48.030;14.710;2023-10-09T09:17:08;16.29;71.67
68026;SHT31;54819;48.030;14.710;2023-10-09T09:19:38;16.42;71.62
68026;SHT31;54819;48.030;14.710;2023-10-09T09:22:05;16.57;71.51
68026;SHT31;54819;48.030;14.710;2023-10-09T09:24:39;16.68;71.47
68026;SHT31;54819;48.030;14.710;2023-10-09T09:27:43;16.77;71.22
68026;SHT31;54819;48.030;14.710;2023-10-09T09:30:23;16.87;71.31
68026;SHT31;54819;48.030;14.710;2023-10-09T09:36:06;16.97;70.61
68026;SHT31;54819;48.030;14.710;2023-10-09T09:38:34;16.99;70.52
68026;SHT31;54819;48.030;14.710;2023-10-09T09:41:15;17.01;70.46
68026;SHT31;54819;48.030;14.710;2023-10-09T09:43:55;17.05;70.44
68026;SHT31;54819;48.030;14.710;2023-10-09T09:46:23;17.04;70.20
68026;SHT31;54819;48.030;14.710;2023-10-09T09:49:01;17.00;69.82
68026;SHT31;54819;48.030;14.710;2023-10-09T09:51:32;16.99;69.90
68026;SHT31;54819;48.030;14.710;2023-10-09T09:53:59;17.04;69.94
68026;SHT31;54819;48.030;14.710;2023-10-09T09:56:26;17.10;69.74
68026;SHT31;54819;48.030;14.710;2023-10-09T09:58:56;17.19;69.97
68026;SHT31;54819;48.030;14.710;2023-10-09T10:01:29;17.27;69.73
68026;SHT31;54819;48.030;14.710;2023-10-09T10:04:03;17.41;69.67
68026;SHT31;54819;48.030;14.710;2023-10-09T10:06:38;17.54;69.33
68026;SHT31;54819;48.030;14.710;2023-10-09T10:09:07;17.67;68.93
68026;SHT31;54819;48.030;14.710;2023-10-09T10:11:40;17.83;68.84
68026;SHT31;54819;48.030;14.710;2023-10-09T10:14:08;17.98;68.56
68026;SHT31;54819;48.030;14.710;2023-10-09T10:16:59;18.06;68.12
68026;SHT31;54819;48.030;14.710;2023-10-09T10:22:40;18.19;68.30
68026;SHT31;54819;48.030;14.710;2023-10-09T10:28:18;18.35;68.16
68026;SHT31;54819;48.030;14.710;2023-10-09T10:30:55;18.47;67.88
68026;SHT31;54819;48.030;14.710;2023-10-09T10:33:24;18.50;67.55
68026;SHT31;54819;48.030;14.710;2023-10-09T10:35:53;18.46;67.48
68026;SHT31;54819;48.030;14.710;2023-10-09T10:41:13;18.51;67.41
68026;SHT31;54819;48.030;14.710;2023-10-09T10:43:44;18.63;67.62
68026;SHT31;54819;48.030;14.710;2023-10-09T10:46:22;18.79;67.37
68026;SHT31;54819;48.030;14.710;2023-10-09T10:49:01;18.83;66.54
68026;SHT31;54819;48.030;14.710;2023-10-09T10:51:48;18.90;66.66
68026;SHT31;54819;48.030;14.710;2023-10-09T10:54:22;19.00;66.09
68026;SHT31;54819;48.030;14.710;2023-10-09T10:57:19;19.13;66.14
68026;SHT31;54819;48.030;14.710;2023-10-09T10:59:58;19.25;65.74
68026;SHT31;54819;48.030;14.710;2023-10-09T11:02:41;19.34;65.47
68026;SHT31;54819;48.030;14.710;2023-10-09T11:05:10;19.37;65.30
68026;SHT31;54819;48.030;14.710;2023-10-09T11:07:57;19.45;65.67
68026;SHT31;54819;48.030;14.710;2023-10-09T11:10:24;19.57;65.86
68026;SHT31;54819;48.030;14.710;2023-10-09T11:12:55;19.72;65.30
68026;SHT31;54819;48.030;14.710;2023-10-09T11:15:34;19.88;64.98
68026;SHT31;54819;48.030;14.710;2023-10-09T11:18:22;20.02;64.35
68026;SHT31;54819;48.030;14.710;2023-10-09T11:20:54;20.15;64.38
68026;SHT31;54819;48.030;14.710;2023-10-09T11:23:44;20.39;64.07
68026;SHT31;54819;48.030;14.710;2023-10-09T11:26:17;20.54;63.87
68026;SHT31;54819;48.030;14.710;2023-10-09T11:29:10;20.69;63.75
68026;SHT31;54819;48.030;14.710;2023-10-09T11:32:00;20.86;62.76
68026;SHT31;54819;48.030;14.710;2023-10-09T11:34:32;20.95;62.19
68026;SHT31;54819;48.030;14.710;2023-10-09T11:37:13;21.04;61.53
68026;SHT31;54819;48.030;14.710;2023-10-09T11:40:26;21.14;60.79
68026;SHT31;54819;48.030;14.710;2023-10-09T11:43:02;21.23;61.32
68026;SHT31;54819;48.030;14.710;2023-10-09T11:45:30;21.33;61.61
68026;SHT31;54819;48.030;14.710;2023-10-09T11:48:16;21.40;61.24
68026;SHT31;54819;48.030;14.710;2023-10-09T11:50:52;21.46;60.57
68026;SHT31;54819;48.030;14.710;2023-10-09T11:53:28;21.55;60.22
68026;SHT31;54819;48.030;14.710;2023-10-09T11:55:55;21.62;60.19
68026;SHT31;54819;48.030;14.710;2023-10-09T11:58:22;21.67;58.55
68026;SHT31;54819;48.030;14.710;2023-10-09T12:00:53;21.71;56.77
68026;SHT31;54819;48.030;14.710;2023-10-09T12:03:24;21.74;56.53
68026;SHT31;54819;48.030;14.710;2023-10-09T12:06:01;21.81;56.30
68026;SHT31;54819;48.030;14.710;2023-10-09T12:08:32;21.88;56.31
68026;SHT31;54819;48.030;14.710;2023-10-09T12:11:01;21.96;56.56
68026;SHT31;54819;48.030;14.710;2023-10-09T12:13:35;21.99;55.59
68026;SHT31;54819;48.030;14.710;2023-10-09T12:16:09;22.00;55.74
68026;SHT31;54819;48.030;14.710;2023-10-09T12:18:37;22.02;54.64
68026;SHT31;54819;48.030;14.710;2023-10-09T12:21:06;22.06;54.44
68026;SHT31;54819;48.030;14.710;2023-10-09T12:23:33;22.07;53.66
68026;SHT31;54819;48.030;14.710;2023-10-09T12:26:03;22.09;53.46
68026;SHT31;54819;48.030;14.710;2023-10-09T12:28:31;22.15;53.51
68026;SHT31;54819;48.030;14.710;2023-10-09T12:31:01;22.21;53.79
68026;SHT31;54819;48.030;14.710;2023-10-09T12:33:28;22.24;53.37
68026;SHT31;54819;48.030;14.710;2023-10-09T12:35:56;22.23;53.51
68026;SHT31;54819;48.030;14.710;2023-10-09T12:38:27;22.16;52.65
68026;SHT31;54819;48.030;14.710;2023-10-09T12:41:04;22.00;52.34
68026;SHT31;54819;48.030;14.710;2023-10-09T12:43:46;21.88;53.20
68026;SHT31;54819;48.030;14.710;2023-10-09T12:46:14;21.76;53.43
68026;SHT31;54819;48.030;14.710;2023-10-09T12:48:44;21.63;53.21
68026;SHT31;54819;48.030;14.710;2023-10-09T12:51:13;21.54;53.53
68026;SHT31;54819;48.030;14.710;2023-10-09T12:53:44;21.45;53.66
68026;SHT31;54819;48.030;14.710;2023-10-09T12:56:24;21.34;53.18
68026;SHT31;54819;48.030;14.710;2023-10-09T12:58:59;21.24;53.71
68026;SHT31;54819;48.030;14.710;2023-10-09T13:01:28;21.12;53.44
68026;SHT31;54819;48.030;14.710;2023-10-09T13:03:58;21.05;54.33
68026;SHT31;54819;48.030;14.710;2023-10-09T13:06:28;20.99;54.54
68026;SHT31;54819;48.030;14.710;2023-10-09T13:08:55;20.94;54.73
68026;SHT31;54819;48.030;14.710;2023-10-09T13:11:26;20.92;55.31
68026;SHT31;54819;48.030;14.710;2023-10-09T13:13:53;20.89;55.53
68026;SHT31;54819;48.030;14.710;2023-10-09T13:16:20;20.85;55.32
68026;SHT31;54819;48.030;14.710;2023-10-09T13:18:57;20.82;55.72
68026;SHT31;54819;48.030;14.710;2023-10-09T13:21:32;20.79;55.59
68026;SHT31;54819;48.030;14.710;2023-10-09T13:23:59;20.77;55.79
68026;SHT31;54819;48.030;14.710;2023-10-09T13:26:29;20.73;56.07
68026;SHT31;54819;48.030;14.710;2023-10-09T13:29:02;20.67;56.13
68026;SHT31;54819;48.030;14.710;2023-10-09T13:31:30;20.61;56.11
68026;SHT31;54819;48.030;14.710;2023-10-09T13:34:02;20.57;56.48
68026;SHT31;54819;48.030;14.710;2023-10-09T13:36:30;20.53;56.47
68026;SHT31;54819;48.030;14.710;2023-10-09T13:39:01;20.50;56.91
68026;SHT31;54819;48.030;14.710;2023-10-09T13:42:01;20.50;57.50
68026;SHT31;54819;48.030;14.710;2023-10-09T13:44:31;20.48;57.64
68026;SHT31;54819;48.030;14.710;2023-10-09T13:47:00;20.45;57.92
68026;SHT31;54819;48.030;14.710;2023-10-09T13:49:29;20.42;58.05
68026;SHT31;54819;48.030;14.710;2023-10-09T13:51:59;20.36;58.31
68026;SHT31;54819;48.030;14.710;2023-10-09T13:54:33;20.29;58.80
68026;SHT31;54819;48.030;14.710;2023-10-09T13:57:00;20.23;59.13
68026;SHT31;54819;48.030;14.710;2023-10-09T13:59:31;20.16;59.49
68026;SHT31;54819;48.030;14.710;2023-10-09T14:02:01;20.11;59.88
68026;SHT31;54819;48.030;14.710;2023-10-09T14:04:36;20.05;60.86
68026;SHT31;54819;48.030;14.710;2023-10-09T14:07:03;20.01;61.74
68026;SHT31;54819;48.030;14.710;2023-10-09T14:09:33;19.93;63.06
68026;SHT31;54819;48.030;14.710;2023-10-09T14:12:11;19.88;64.31
68026;SHT31;54819;48.030;14.710;2023-10-09T14:14:44;19.79;64.86
68026;SHT31;54819;48.030;14.710;2023-10-09T14:17:18;19.74;63.99
68026;SHT31;54819;48.030;14.710;2023-10-09T14:19:53;19.71;64.90
68026;SHT31;54819;48.030;14.710;2023-10-09T14:22:43;19.67;66.01
68026;SHT31;54819;48.030;14.710;2023-10-09T14:25:12;19.59;66.63
68026;SHT31;54819;48.030;14.710;2023-10-09T14:27:41;19.53;67.31
68026;SHT31;54819;48.030;14.710;2023-10-09T14:30:08;19.47;67.84
68026;SHT31;54819;48.030;14.710;2023-10-09T14:32:45;19.41;67.99
68026;SHT31;54819;48.030;14.710;2023-10-09T14:35:18;19.33;67.91
68026;SHT31;54819;48.030;14.710;2023-10-09T14:37:48;19.29;67.70
68026;SHT31;54819;48.030;14.710;2023-10-09T14:40:15;19.19;67.78
68026;SHT31;54819;48.030;14.710;2023-10-09T14:42:47;19.07;68.57
68026;SHT31;54819;48.030;14.710;2023-10-09T14:45:22;18.99;69.41
68026;SHT31;54819;48.030;14.710;2023-10-09T14:47:52;18.98;69.79
68026;SHT31;54819;48.030;14.710;2023-10-09T14:50:21;18.93;69.87
68026;SHT31;54819;48.030;14.710;2023-10-09T14:52:50;18.88;70.48
68026;SHT31;54819;48.030;14.710;2023-10-09T14:55:18;18.88;70.94
68026;SHT31;54819;48.030;14.710;2023-10-09T14:57:55;18.86;71.35
68026;SHT31;54819;48.030;14.710;2023-10-09T15:00:22;18.81;70.78
68026;SHT31;54819;48.030;14.710;2023-10-09T15:02:53;18.75;70.40
68026;SHT31;54819;48.030;14.710;2023-10-09T15:05:20;18.73;70.01
68026;SHT31;54819;48.030;14.710;2023-10-09T15:07:49;18.68;70.38
68026;SHT31;54819;48.030;14.710;2023-10-09T15:10:17;18.66;70.42
68026;SHT31;54819;48.030;14.710;2023-10-09T15:12:45;18.65;70.43
68026;SHT31;54819;48.030;14.710;2023-10-09T15:15:13;18.63;70.58
68026;SHT31;54819;48.030;14.710;2023-10-09T15:17:44;18.61;70.95
68026;SHT31;54819;48.030;14.710;2023-10-09T15:20:15;18.57;71.30
68026;SHT31;54819;48.030;14.710;2023-10-09T15:22:44;18.53;71.82
68026;SHT31;54819;48.030;14.710;2023-10-09T15:25:11;18.49;72.33
68026;SHT31;54819;48.030;14.710;2023-10-09T15:27:42;18.42;72.64
68026;SHT31;54819;48.030;14.710;2023-10-09T15:30:09;18.35;72.83
68026;SHT31;54819;48.030;14.710;2023-10-09T15:32:41;18.26;72.78
68026;SHT31;54819;48.030;14.710;2023-10-09T15:35:08;18.18;72.76
68026;SHT31;54819;48.030;14.710;2023-10-09T15:37:41;18.13;73.07
68026;SHT31;54819;48.030;14.710;2023-10-09T15:40:09;18.09;73.51
68026;SHT31;54819;48.030;14.710;2023-10-09T15:42:41;18.03;73.82
68026;SHT31;54819;48.030;14.710;2023-10-09T15:45:10;17.98;74.10
68026;SHT31;54819;48.030;14.710;2023-10-09T15:47:38;17.92;74.20
68026;SHT31;54819;48.030;14.710;2023-10-09T15:50:06;17.87;74.62
68026;SHT31;54819;48.030;14.710;2023-10-09T15:52:38;17.82;74.58
68026;SHT31;54819;48.030;14.710;2023-10-09T15:55:06;17.76;74.72
68026;SHT31;54819;48.030;14.710;2023-10-09T15:57:40;17.74;74.40
68026;SHT31;54819;48.030;14.710;2023-10-09T16:00:08;17.72;74.06
68026;SHT31;54819;48.030;14.710;2023-10-09T16:02:45;17.71;73.89
68026;SHT31;54819;48.030;14.710;2023-10-09T16:05:19;17.70;73.90
68026;SHT31;54819;48.030;14.710;2023-10-09T16:07:52;17.69;73.10
68026;SHT31;54819;48.030;14.710;2023-10-09T16:10:20;17.72;72.51
68026;SHT31;54819;48.030;14.710;2023-10-09T16:12:47;17.80;71.70
68026;SHT31;54819;48.030;14.710;2023-10-09T16:15:14;17.84;71.17
68026;SHT31;54819;48.030;14.710;2023-10-09T16:17:41;17.91;70.40